Time;durP1;ratioP1;P1;durP2;ratioP2;P2;SDS_P1;SDS_P2;PMS_P1;PMS_P2;Temp;Humidity;BMP_temperature;BMP_pressure;BME280_temperature;BME280_humidity;BME280_pressure;Samples;Min_cycle;Max_cycle;Signal;HPM_P1;HPM_P2
2024/03/05 00:02:13;;;;;;;27.42;17.65;;;;;;;10.15;61.96;94118.69;5027354;28;20498;-79
2024/03/05 00:04:38;;;;;;;29.75;19.02;;;;;;;10.16;61.95;94112.75;5026642;28;20068;-78
2024/03/05 00:07:04;;;;;;;29.90;17.83;;;;;;;10.13;62.11;94112.88;5026840;28;20053;-77
2024/03/05 00:09:30;;;;;;;28.23;17.35;;;;;;;10.21;61.88;94109.41;5026423;28;20029;-78
2024/03/05 00:11:56;;;;;;;25.98;16.75;;;;;;;10.25;61.37;94104.56;5026944;28;20025;-77
2024/03/05 00:14:22;;;;;;;29.65;18.08;;;;;;;10.31;61.13;94110.97;5025114;28;20032;-78
2024/03/05 00:16:47;;;;;;;29.45;17.67;;;;;;;10.22;61.23;94102.69;5026886;28;20021;-78
2024/03/05 00:19:13;;;;;;;30.50;18.65;;;;;;;10.17;61.51;94106.03;5026881;28;20076;-77
2024/03/05 00:21:39;;;;;;;28.65;18.60;;;;;;;10.17;61.69;94100.56;5026627;28;20502;-78
2024/03/05 00:24:05;;;;;;;29.48;18.63;;;;;;;10.15;61.67;94100.25;5027131;28;20021;-77
2024/03/05 00:26:31;;;;;;;28.75;18.30;;;;;;;10.16;61.70;94099.03;5026350;28;20378;-78
2024/03/05 00:28:58;;;;;;;29.13;18.02;;;;;;;10.12;61.90;94090.16;5026537;28;20032;-78
2024/03/05 00:31:24;;;;;;;28.40;18.92;;;;;;;10.13;61.81;94082.69;5026327;28;20036;-77
2024/03/05 00:33:49;;;;;;;30.55;17.75;;;;;;;10.15;61.87;94092.00;5025196;28;20025;-79
2024/03/05 00:36:14;;;;;;;28.67;18.05;;;;;;;10.21;61.59;94095.69;5024983;28;20030;-78
2024/03/05 00:38:41;;;;;;;28.00;17.40;;;;;;;10.16;61.64;94085.28;5026395;28;20029;-77
2024/03/05 00:41:07;;;;;;;29.23;18.45;;;;;;;10.21;61.47;94090.19;5027054;28;20480;-79
2024/03/05 00:43:32;;;;;;;30.13;17.63;;;;;;;10.20;61.53;94082.38;5026510;28;20048;-79
2024/03/05 00:45:58;;;;;;;28.58;17.58;;;;;;;10.18;61.46;94082.84;5027314;28;20037;-77
2024/03/05 00:48:23;;;;;;;26.67;16.85;;;;;;;10.19;61.52;94076.13;5041903;28;20308;-77
2024/03/05 00:50:50;;;;;;;28.67;17.63;;;;;;;10.17;61.41;94070.34;5027538;28;20083;-78
2024/03/05 00:53:16;;;;;;;30.60;17.35;;;;;;;10.23;61.39;94071.28;5027020;28;20488;-78
2024/03/05 00:55:42;;;;;;;28.48;17.60;;;;;;;10.19;61.58;94059.66;5027039;28;20025;-77
2024/03/05 00:58:07;;;;;;;29.13;17.55;;;;;;;10.23;61.55;94071.28;5026651;28;20058;-77
2024/03/05 01:00:33;;;;;;;28.40;17.55;;;;;;;10.21;61.62;94067.47;5025739;28;20128;-78
2024/03/05 01:02:58;;;;;;;28.23;18.48;;;;;;;10.16;61.60;94057.84;5027002;28;20037;-77
2024/03/05 01:05:23;;;;;;;27.88;17.33;;;;;;;10.17;61.49;94059.34;5024320;28;20048;-78
2024/03/05 01:07:49;;;;;;;29.05;17.20;;;;;;;10.16;61.73;94060.56;5026033;28;20021;-78
2024/03/05 01:10:14;;;;;;;29.15;17.08;;;;;;;10.22;61.27;94047.75;5028271;28;20017;-78
2024/03/05 01:12:40;;;;;;;28.45;17.38;;;;;;;10.25;61.33;94046.88;5029861;28;20017;-77
2024/03/05 01:15:06;;;;;;;27.25;16.77;;;;;;;10.17;61.79;94053.09;5029892;28;20017;-79
2024/03/05 01:17:35;;;;;;;26.50;16.63;;;;;;;10.20;61.82;94052.16;5027980;28;20040;-78
2024/03/05 01:20:00;;;;;;;28.92;18.10;;;;;;;10.18;61.73;94047.13;5030150;28;20029;-78
2024/03/05 01:22:26;;;;;;;28.67;16.52;;;;;;;10.24;61.68;94050.84;5029295;28;20045;-78
2024/03/05 01:24:52;;;;;;;31.15;16.58;;;;;;;10.24;61.60;94050.84;5029634;28;20499;-78
2024/03/05 01:27:21;;;;;;;29.10;19.25;;;;;;;10.20;61.93;94049.44;5029529;28;20109;-77
2024/03/05 01:29:47;;;;;;;28.17;17.20;;;;;;;10.16;61.86;94043.34;5028013;28;20534;-78
2024/03/05 01:32:15;;;;;;;25.67;17.20;;;;;;;10.16;62.00;94044.09;5029655;28;20897;-78
2024/03/05 01:34:43;;;;;;;28.95;17.48;;;;;;;10.25;61.66;94038.63;5029810;28;20039;-77
2024/03/05 01:37:10;;;;;;;27.75;17.35;;;;;;;10.17;61.78;94039.38;5029801;28;20090;-77
2024/03/05 01:39:35;;;;;;;26.42;17.65;;;;;;;10.14;61.86;94043.78;5029089;28;20455;-78
2024/03/05 01:42:01;;;;;;;28.25;17.58;;;;;;;10.18;61.86;94038.91;5028008;28;20033;-77
2024/03/05 01:44:28;;;;;;;25.92;16.98;;;;;;;10.21;61.72;94029.75;5029141;28;20116;-77
2024/03/05 01:46:55;;;;;;;29.13;18.13;;;;;;;10.19;61.59;94026.69;5029196;28;20108;-78
2024/03/05 01:49:21;;;;;;;28.92;17.00;;;;;;;10.15;61.66;94017.84;5028879;28;20144;-78
2024/03/05 01:51:47;;;;;;;30.25;17.55;;;;;;;10.29;61.41;94022.00;5029286;28;20063;-78
2024/03/05 01:54:14;;;;;;;26.42;16.52;;;;;;;10.31;61.40;94014.81;5029167;28;20151;-77
2024/03/05 01:56:42;;;;;;;24.50;16.05;;;;;;;10.21;61.58;94018.78;5028856;28;20057;-78
2024/03/05 01:59:07;;;;;;;25.60;17.00;;;;;;;10.22;61.54;94014.81;5044358;28;20534;-78
2024/03/05 02:01:34;;;;;;;25.95;16.70;;;;;;;10.18;61.94;94018.91;5028617;28;20088;-77
2024/03/05 02:04:00;;;;;;;28.23;16.17;;;;;;;10.19;61.92;94017.69;5028894;28;20021;-78
2024/03/05 02:06:26;;;;;;;25.60;16.48;;;;;;;10.23;61.90;94007.31;5028726;28;20110;-77
2024/03/05 02:08:52;;;;;;;29.58;17.17;;;;;;;10.19;61.97;94007.47;5028786;28;20381;-77
2024/03/05 02:11:18;;;;;;;27.95;17.92;;;;;;;10.24;62.02;94015.13;5029079;28;20086;-77
2024/03/05 02:13:44;;;;;;;26.58;16.90;;;;;;;10.26;62.08;94018.19;5028645;28;20063;-77
2024/03/05 02:16:09;;;;;;;30.25;18.30;;;;;;;10.19;62.29;94015.72;5028911;28;20025;-78
2024/03/05 02:18:34;;;;;;;29.70;18.25;;;;;;;10.13;62.66;94014.03;5028774;28;20067;-77
2024/03/05 02:21:02;;;;;;;29.80;18.58;;;;;;;10.08;62.92;94009.91;5028535;28;20034;-77
2024/03/05 02:23:27;;;;;;;29.08;18.30;;;;;;;10.14;62.84;94016.31;5028559;28;20025;-77
2024/03/05 02:25:52;;;;;;;29.52;18.83;;;;;;;10.11;62.86;94009.75;5028592;28;20621;-79
2024/03/05 02:28:18;;;;;;;28.45;18.52;;;;;;;10.13;62.77;94012.03;5028376;28;20029;-78
2024/03/05 02:30:43;;;;;;;29.90;18.15;;;;;;;10.14;62.83;94013.56;5028564;28;20025;-77
2024/03/05 02:33:09;;;;;;;29.48;18.30;;;;;;;10.10;62.91;94015.72;5028681;28;20376;-77
2024/03/05 02:35:34;;;;;;;28.05;17.95;;;;;;;10.04;63.03;94004.56;5043248;28;20017;-76
2024/03/05 02:38:00;;;;;;;31.83;18.58;;;;;;;10.10;62.97;94004.72;5028489;28;20036;-77
2024/03/05 02:40:25;;;;;;;30.60;17.85;;;;;;;10.09;62.78;94009.47;5028064;28;20021;-78
2024/03/05 02:42:52;;;;;;;28.20;17.65;;;;;;;10.05;62.99;94005.31;5028373;28;20052;-77
2024/03/05 02:45:18;;;;;;;29.38;18.88;;;;;;;10.03;63.12;94010.50;5027849;28;20057;-77
2024/03/05 02:47:43;;;;;;;30.90;19.13;;;;;;;9.97;63.45;94006.81;5028424;28;20029;-77
2024/03/05 02:50:09;;;;;;;30.08;19.25;;;;;;;9.90;63.47;94007.88;5028089;28;20091;-77
2024/03/05 02:52:38;;;;;;;32.88;19.83;;;;;;;9.83;63.93;94010.94;5028319;28;20045;-76
2024/03/05 02:55:09;;;;;;;31.90;18.65;;;;;;;9.76;63.93;94014.72;5028300;28;20017;-78
2024/03/05 02:57:36;;;;;;;29.58;19.67;;;;;;;9.74;64.20;94010.91;5026174;28;20200;-77
2024/03/05 03:00:08;;;;;;;32.10;19.40;;;;;;;9.65;64.10;93997.16;5026488;28;20151;-76
2024/03/05 03:02:34;;;;;;;33.40;19.45;;;;;;;9.78;64.04;94019.75;5027746;28;20017;-77
2024/03/05 03:04:59;;;;;;;28.33;17.83;;;;;;;9.74;64.41;94017.16;5027588;28;20407;-77
2024/03/05 03:07:25;;;;;;;35.35;18.70;;;;;;;9.64;64.64;94017.59;5027238;28;20026;-78
2024/03/05 03:09:50;;;;;;;34.20;19.27;;;;;;;9.66;64.68;94018.66;5027588;28;20075;-77
2024/03/05 03:12:16;;;;;;;32.35;19.65;;;;;;;9.66;64.80;94015.91;5027962;28;20048;-77
2024/03/05 03:14:45;;;;;;;31.80;17.83;;;;;;;9.68;64.81;94020.94;5027452;28;20029;-77
2024/03/05 03:17:11;;;;;;;30.75;19.10;;;;;;;9.69;64.66;94022.47;5027719;28;20038;-78
2024/03/05 03:19:36;;;;;;;33.95;19.90;;;;;;;9.76;64.53;94014.72;5027061;28;20038;-79
2024/03/05 03:22:02;;;;;;;31.92;20.15;;;;;;;9.83;64.14;94019.16;5027411;28;20107;-78
2024/03/05 03:24:28;;;;;;;32.50;20.35;;;;;;;9.79;64.21;94008.31;5027165;28;20029;-78
2024/03/05 03:26:54;;;;;;;33.92;19.85;;;;;;;9.70;64.43;94015.78;5042611;28;20026;-79
2024/03/05 03:29:20;;;;;;;31.92;19.55;;;;;;;9.74;64.35;94010.91;5027410;28;20021;-78
2024/03/05 03:31:48;;;;;;;31.00;19.48;;;;;;;9.62;64.57;94004.31;5027016;28;20041;-77
2024/03/05 03:34:16;;;;;;;33.67;18.98;;;;;;;9.73;64.50;94015.63;5027184;28;20052;-78
2024/03/05 03:36:43;;;;;;;30.60;19.42;;;;;;;9.67;64.26;94011.94;5027155;28;20025;-77
2024/03/05 03:39:11;;;;;;;33.97;19.83;;;;;;;9.50;64.98;94007.94;5027340;28;20030;-78
2024/03/05 03:41:39;;;;;;;30.67;19.10;;;;;;;9.57;64.71;94007.66;5026688;28;20041;-77
2024/03/05 03:44:06;;;;;;;31.25;18.42;;;;;;;9.41;65.12;94003.19;5025452;28;20476;-78
2024/03/05 03:46:34;;;;;;;34.20;19.02;;;;;;;9.43;65.26;94003.50;5027217;28;20432;-78
2024/03/05 03:49:02;;;;;;;34.47;19.15;;;;;;;9.41;65.35;94007.91;5027091;28;20025;-78
2024/03/05 03:51:29;;;;;;;32.30;19.52;;;;;;;9.43;65.09;94002.72;5027146;28;20128;-78
2024/03/05 03:53:54;;;;;;;32.38;19.33;;;;;;;9.43;64.93;93998.00;5027018;28;20018;-78
2024/03/05 03:56:20;;;;;;;30.13;17.38;;;;;;;9.43;65.00;93997.25;5026938;28;20925;-77
2024/03/05 03:58:46;;;;;;;35.70;19.55;;;;;;;9.30;65.29;93998.13;5026895;28;20089;-78
2024/03/05 04:01:13;;;;;;;31.58;19.23;;;;;;;9.32;65.31;94001.16;5027024;28;20044;-78
2024/03/05 04:03:39;;;;;;;33.92;19.88;;;;;;;9.34;65.20;94002.69;5027022;28;20147;-79
2024/03/05 04:06:05;;;;;;;35.42;19.35;;;;;;;9.35;65.27;94002.25;5026520;28;20026;-79
2024/03/05 04:08:30;;;;;;;36.42;19.67;;;;;;;9.28;65.64;93997.03;5027073;28;20024;-79
2024/03/05 04:10:56;;;;;;;28.80;18.15;;;;;;;9.24;65.18;93997.19;5026756;28;20106;-78
2024/03/05 04:13:21;;;;;;;32.38;18.00;;;;;;;9.17;65.84;93991.94;5026652;28;20068;-78
2024/03/05 04:15:47;;;;;;;32.83;19.58;;;;;;;9.05;66.54;93987.31;5027043;28;20021;-79
2024/03/05 04:18:12;;;;;;;30.95;17.67;;;;;;;9.07;66.41;93997.88;5025144;28;20036;-78
2024/03/05 04:20:38;;;;;;;37.35;19.80;;;;;;;9.10;66.10;93994.97;5026361;28;20610;-78
2024/03/05 04:23:03;;;;;;;31.75;19.17;;;;;;;9.03;66.43;93993.25;5026650;28;20030;-78
2024/03/05 04:25:35;;;;;;;34.58;18.65;;;;;;;9.02;66.22;94001.94;5026713;28;20030;-77
2024/03/05 04:28:02;;;;;;;32.95;18.05;;;;;;;8.93;66.25;93985.44;5026725;28;20021;-78
2024/03/05 04:30:28;;;;;;;32.42;19.17;;;;;;;8.97;66.55;93999.78;5026648;28;20113;-77
2024/03/05 04:33:03;;;;;;;28.63;18.10;;;;;;;8.90;66.55;94000.81;5027009;28;20057;-78
2024/03/05 04:35:29;;;;;;;29.50;16.83;;;;;;;8.92;66.43;93994.88;5026198;28;20479;-78
2024/03/05 04:37:55;;;;;;;29.80;15.52;;;;;;;8.88;66.74;93991.50;5026605;28;20030;-79
2024/03/05 04:40:21;;;;;;;30.10;17.48;;;;;;;8.87;66.68;93987.22;5026161;28;20064;-78
2024/03/05 04:42:48;;;;;;;28.40;18.27;;;;;;;8.75;66.79;93983.38;5026743;28;20018;-80
2024/03/05 04:45:14;;;;;;;31.67;17.23;;;;;;;8.80;66.60;93995.72;5030010;28;20476;-79
2024/03/05 04:47:40;;;;;;;28.67;16.40;;;;;;;8.73;66.21;93985.81;5029282;28;20039;-80
2024/03/05 04:50:06;;;;;;;25.38;16.13;;;;;;;8.70;66.54;94000.38;5030269;28;20033;-80
2024/03/05 04:52:31;;;;;;;27.15;16.50;;;;;;;8.67;66.36;94002.06;5031043;28;20061;-80
2024/03/05 04:54:57;;;;;;;27.52;16.10;;;;;;;8.61;66.29;93997.59;5050242;28;20021;-79
2024/03/05 04:57:23;;;;;;;26.02;16.00;;;;;;;8.73;65.57;93996.75;5036190;28;20153;-80
2024/03/05 04:59:48;;;;;;;20.88;11.73;;;;;;;8.62;65.43;93988.91;5032594;28;20034;-80
2024/03/05 05:02:14;;;;;;;25.33;14.18;;;;;;;8.62;65.53;93996.38;5030590;28;20022;-80
2024/03/05 05:04:41;;;;;;;23.17;13.65;;;;;;;8.55;65.45;93991.16;5030896;28;20040;-80
2024/03/05 05:07:07;;;;;;;26.88;15.15;;;;;;;8.64;65.41;94000.19;5029853;28;20052;-79
2024/03/05 05:09:33;;;;;;;22.92;14.13;;;;;;;8.62;65.21;93997.16;5029772;28;20029;-79
2024/03/05 05:11:59;;;;;;;23.73;13.18;;;;;;;8.69;64.90;94007.84;5044995;28;20029;-80
2024/03/05 05:14:24;;;;;;;23.70;13.68;;;;;;;8.76;64.89;94007.56;5028814;28;20070;-79
2024/03/05 05:16:51;;;;;;;24.40;14.50;;;;;;;8.74;64.67;94003.75;5029911;28;20037;-80
2024/03/05 05:19:16;;;;;;;23.27;13.88;;;;;;;8.81;64.97;94003.50;5029641;28;20453;-80
2024/03/05 05:21:45;;;;;;;23.15;15.23;;;;;;;8.87;64.44;94020.13;5030092;28;20037;-79
2024/03/05 05:24:11;;;;;;;27.67;15.25;;;;;;;8.94;64.17;94012.38;5029606;28;20500;-79
2024/03/05 05:26:37;;;;;;;23.60;14.98;;;;;;;8.96;64.35;94014.72;5029491;28;20337;-79
2024/03/05 05:29:03;;;;;;;24.30;15.00;;;;;;;9.02;64.12;94018.41;5029668;28;20060;-79
2024/03/05 05:31:28;;;;;;;24.98;15.00;;;;;;;9.09;63.96;94020.88;5029430;28;20083;-79
2024/03/05 05:33:55;;;;;;;31.48;16.70;;;;;;;9.20;63.85;94018.47;5029654;28;20022;-78
2024/03/05 05:36:21;;;;;;;29.05;17.77;;;;;;;9.24;64.04;94021.84;5029668;28;20028;-80
2024/03/05 05:38:48;;;;;;;27.23;16.88;;;;;;;9.32;64.01;94019.59;5029665;28;20025;-79
2024/03/05 05:41:13;;;;;;;29.25;18.17;;;;;;;9.31;64.03;94018.06;5029465;28;20108;-79
2024/03/05 05:43:40;;;;;;;27.42;17.33;;;;;;;9.31;64.25;94024.31;5029662;28;20179;-81
2024/03/05 05:46:14;;;;;;;30.25;18.67;;;;;;;9.38;64.01;94017.78;5029480;28;20034;-79
2024/03/05 05:48:42;;;;;;;27.55;16.75;;;;;;;9.36;64.02;94017.50;5029111;28;20037;-79
2024/03/05 05:51:10;;;;;;;30.25;18.20;;;;;;;9.37;63.96;94019.00;5029270;28;20435;-83
2024/03/05 05:53:36;;;;;;;31.60;16.55;;;;;;;9.36;63.96;94027.69;5029433;28;20061;-84
2024/03/05 05:56:01;;;;;;;25.85;17.42;;;;;;;9.41;63.63;94027.13;5028843;28;20026;-80
2024/03/05 05:58:27;;;;;;;30.67;18.52;;;;;;;9.50;63.33;94029.88;5028941;28;20022;-82
2024/03/05 06:00:53;;;;;;;27.75;18.20;;;;;;;9.46;63.53;94030.03;5029517;28;20237;-81
2024/03/05 06:03:18;;;;;;;29.70;18.30;;;;;;;9.51;63.55;94023.94;5029378;28;20590;-81
2024/03/05 06:05:46;;;;;;;30.30;17.73;;;;;;;9.61;63.24;94029.47;5028900;28;20112;-81
2024/03/05 06:08:13;;;;;;;30.30;16.92;;;;;;;9.59;62.94;94018.94;5029078;28;20025;-81
2024/03/05 06:10:41;;;;;;;28.98;16.98;;;;;;;9.56;62.96;94011.59;5043757;28;20026;-80
2024/03/05 06:13:06;;;;;;;28.10;16.45;;;;;;;9.63;62.37;94022.28;5027646;28;20034;-81
2024/03/05 06:15:33;;;;;;;25.65;15.90;;;;;;;9.70;62.43;94024.78;5028510;28;20101;-80
2024/03/05 06:17:59;;;;;;;26.25;14.55;;;;;;;9.70;61.83;94027.53;5029282;28;20032;-80
2024/03/05 06:20:27;;;;;;;27.33;14.65;;;;;;;9.71;61.85;94026.31;5029023;28;20021;-80
2024/03/05 06:22:52;;;;;;;23.65;14.15;;;;;;;9.68;61.75;94018.19;5027493;28;20491;-80
2024/03/05 06:25:18;;;;;;;25.55;16.88;;;;;;;9.78;61.70;94026.00;5028670;28;20025;-79
2024/03/05 06:27:44;;;;;;;27.50;16.73;;;;;;;9.80;61.75;94026.31;5028522;28;20045;-80
2024/03/05 06:30:29;;;;;;;26.67;16.90;;;;;;;9.87;61.78;94036.25;5028853;28;20025;-82
2024/03/05 06:32:54;;;;;;;24.75;16.30;;;;;;;9.94;61.70;94043.44;5028490;28;20080;-81
2024/03/05 06:35:24;;;;;;;27.30;16.35;;;;;;;10.03;61.11;94040.69;5029130;28;20131;-81
2024/03/05 06:37:50;;;;;;;24.48;15.48;;;;;;;10.05;61.09;94038.28;5028060;28;20029;-80
2024/03/05 06:40:19;;;;;;;22.70;14.48;;;;;;;10.15;60.57;94050.81;5028719;28;20030;-78
2024/03/05 06:42:52;;;;;;;20.63;14.07;;;;;;;10.25;59.63;94049.63;5043054;28;20480;-79
2024/03/05 06:45:24;;;;;;;21.55;14.18;;;;;;;10.26;59.97;94040.16;5027196;28;20035;-80
2024/03/05 06:47:56;;;;;;;22.63;13.73;;;;;;;10.29;59.84;94042.00;5027381;28;20134;-82
2024/03/05 06:50:41;;;;;;;21.65;13.73;;;;;;;10.39;59.66;94047.50;5028317;28;20500;-77
2024/03/05 06:58:44;;;;;;;35.63;18.30;;;;;;;10.60;59.86;94049.34;5027724;28;20044;-78
2024/03/05 07:01:10;;;;;;;30.73;18.15;;;;;;;10.72;59.68;94042.91;5028264;28;20463;-78
2024/03/05 07:03:38;;;;;;;29.10;17.25;;;;;;;10.81;59.30;94056.66;5028162;28;20120;-78
2024/03/05 07:06:07;;;;;;;27.73;17.38;;;;;;;10.90;58.83;94050.41;5026442;28;20520;-79
2024/03/05 07:08:43;;;;;;;27.83;16.98;;;;;;;11.02;58.40;94056.97;5027781;28;20025;-78
2024/03/05 07:11:10;;;;;;;29.42;15.35;;;;;;;11.07;58.48;94068.09;5028673;28;20057;-80
2024/03/05 07:13:36;;;;;;;27.83;14.77;;;;;;;11.08;58.09;94064.13;5027754;28;20040;-80
2024/03/05 07:16:03;;;;;;;24.95;14.10;;;;;;;11.25;57.73;94075.56;5034152;28;20029;-82
2024/03/05 07:18:28;;;;;;;18.73;12.00;;;;;;;11.27;57.27;94078.59;5031584;28;20570;-80
2024/03/05 07:20:54;;;;;;;20.83;12.73;;;;;;;11.29;56.92;94067.13;5028842;28;20033;-77
2024/03/05 07:23:21;;;;;;;21.38;11.88;;;;;;;11.39;56.30;94071.38;5029297;28;20025;-78
2024/03/05 07:25:47;;;;;;;18.52;11.73;;;;;;;11.38;55.94;94067.09;5030512;28;20065;-78
2024/03/05 07:28:12;;;;;;;16.38;9.80;;;;;;;11.38;55.72;94070.63;5029795;28;20022;-79
2024/03/05 07:30:37;;;;;;;16.73;9.48;;;;;;;11.53;55.13;94069.97;5027805;28;20029;-78
2024/03/05 07:33:03;;;;;;;15.73;9.82;;;;;;;11.52;55.15;94068.44;5028224;28;20081;-77
2024/03/05 07:35:29;;;;;;;18.50;11.02;;;;;;;11.65;55.20;94078.03;5028830;28;20528;-78
2024/03/05 07:37:55;;;;;;;16.20;11.80;;;;;;;11.70;54.74;94080.16;5028433;28;20025;-78
2024/03/05 07:40:22;;;;;;;19.67;11.25;;;;;;;11.68;54.94;94079.09;5043398;28;20155;-77
2024/03/05 07:42:53;;;;;;;22.27;11.18;;;;;;;11.72;55.06;94085.19;5026889;28;20139;-77
2024/03/05 07:45:20;;;;;;;19.13;11.85;;;;;;;11.75;54.91;94089.75;5042598;28;20129;-77
2024/03/05 07:47:47;;;;;;;19.77;12.95;;;;;;;11.79;55.27;94084.88;5027067;28;20033;-78
2024/03/05 07:50:14;;;;;;;20.95;12.98;;;;;;;11.77;55.07;94084.56;5027415;28;20017;-77
2024/03/05 07:52:40;;;;;;;19.88;12.50;;;;;;;11.78;55.32;94094.34;5027584;28;20029;-78
2024/03/05 07:55:08;;;;;;;21.63;13.38;;;;;;;11.76;55.48;94093.31;5027533;28;20048;-78
2024/03/05 07:57:34;;;;;;;20.83;13.85;;;;;;;11.69;55.84;94083.38;5026864;28;20044;-78
2024/03/05 08:00:01;;;;;;;16.70;11.98;;;;;;;11.70;55.65;94088.44;5027168;28;20049;-78
2024/03/05 08:02:27;;;;;;;24.25;13.13;;;;;;;11.73;55.63;94089.47;5027199;28;20029;-78
2024/03/05 08:04:52;;;;;;;22.02;13.75;;;;;;;11.76;55.58;94088.56;5026351;28;20115;-78
2024/03/05 08:07:17;;;;;;;20.58;11.60;;;;;;;11.81;55.07;94084.38;5026564;28;20029;-77
2024/03/05 08:09:43;;;;;;;21.98;11.02;;;;;;;11.82;54.75;94083.22;5026853;28;20025;-76
2024/03/05 08:12:08;;;;;;;16.00;10.65;;;;;;;11.81;54.73;94092.66;5026906;28;20132;-78
2024/03/05 08:14:34;;;;;;;16.20;10.45;;;;;;;11.74;54.99;94095.75;5026788;28;20029;-78
2024/03/05 08:16:59;;;;;;;17.20;9.27;;;;;;;11.82;54.15;94091.47;5027017;28;20547;-78
2024/03/05 08:19:24;;;;;;;16.42;9.63;;;;;;;11.81;54.04;94093.44;5049657;28;20575;-78
2024/03/05 08:21:50;;;;;;;19.10;9.57;;;;;;;11.84;53.71;94095.28;5051582;28;20378;-78
2024/03/05 08:24:15;;;;;;;14.50;10.02;;;;;;;11.80;53.91;94091.88;5040965;28;20030;-78
2024/03/05 08:26:41;;;;;;;24.33;12.57;;;;;;;11.89;54.11;94089.13;5033267;28;20111;-78
2024/03/05 08:29:07;;;;;;;21.40;12.38;;;;;;;11.96;54.03;94091.53;5045306;28;20027;-78
2024/03/05 08:31:33;;;;;;;18.98;11.35;;;;;;;12.00;53.80;94091.38;5053369;28;20121;-77
2024/03/05 08:34:00;;;;;;;16.48;11.30;;;;;;;12.10;53.21;94094.84;5052182;28;20061;-78
2024/03/05 08:36:25;;;;;;;17.70;10.25;;;;;;;12.02;53.23;94105.44;5053524;28;20053;-78
2024/03/05 08:38:51;;;;;;;23.35;10.35;;;;;;;12.09;53.14;94101.59;5051693;28;20681;-78
2024/03/05 08:41:17;;;;;;;15.80;10.38;;;;;;;12.20;52.45;94099.09;5053249;28;20032;-78
2024/03/05 08:43:43;;;;;;;17.55;9.88;;;;;;;12.11;52.75;94099.16;5052801;28;20028;-78
2024/03/05 08:46:09;;;;;;;16.35;10.52;;;;;;;12.18;52.74;94096.03;5053188;28;20095;-78
2024/03/05 08:48:34;;;;;;;19.58;10.82;;;;;;;12.20;52.24;94101.84;5052986;28;20166;-77
2024/03/05 08:51:00;;;;;;;16.70;10.98;;;;;;;12.20;52.38;94105.34;5053636;28;20096;-77
2024/03/05 08:53:25;;;;;;;13.18;10.60;;;;;;;12.29;52.27;94095.53;5053337;28;20017;-77
2024/03/05 08:55:52;;;;;;;15.00;10.95;;;;;;;12.33;52.10;94102.41;5068715;28;20395;-77
2024/03/05 08:58:18;;;;;;;17.90;10.38;;;;;;;12.29;51.82;94095.53;5053242;28;20037;-77
2024/03/05 09:00:43;;;;;;;18.00;11.45;;;;;;;12.34;51.84;94098.41;5052710;28;20027;-78
2024/03/05 09:03:11;;;;;;;18.08;10.73;;;;;;;12.39;51.83;94100.53;5053126;28;20037;-77
2024/03/05 09:05:37;;;;;;;15.88;10.57;;;;;;;12.43;51.73;94101.09;5052879;28;20487;-78
2024/03/05 09:08:04;;;;;;;19.05;12.38;;;;;;;12.49;51.96;94104.72;5052869;28;20104;-78
2024/03/05 09:10:31;;;;;;;18.33;11.57;;;;;;;12.63;51.35;94105.28;5053278;28;20028;-77
2024/03/05 09:12:57;;;;;;;20.25;11.60;;;;;;;12.72;50.77;94107.94;5053227;28;20123;-77
2024/03/05 09:15:22;;;;;;;15.70;10.43;;;;;;;12.93;50.12;94103.34;5053145;28;20545;-78
2024/03/05 09:17:47;;;;;;;19.75;11.52;;;;;;;13.01;49.89;94102.50;5052952;28;20017;-79
2024/03/05 09:20:15;;;;;;;17.88;11.32;;;;;;;13.41;49.49;94097.72;5052961;28;20028;-78
2024/03/05 09:22:44;;;;;;;22.98;10.30;;;;;;;13.62;48.93;94102.13;5052441;28;20487;-78
2024/03/05 09:25:14;;;;;;;18.20;9.18;;;;;;;13.54;48.93;94096.22;5052632;28;20083;-78
2024/03/05 09:27:40;;;;;;;17.08;9.65;;;;;;;13.65;49.10;94100.41;5053145;28;20036;-77
2024/03/05 09:30:08;;;;;;;16.05;10.32;;;;;;;14.01;48.57;94096.47;5050659;28;20029;-77
2024/03/05 09:32:34;;;;;;;20.88;10.88;;;;;;;15.16;46.36;94091.44;5049622;28;20021;-78
2024/03/05 09:34:59;;;;;;;14.90;9.57;;;;;;;16.07;44.18;94100.13;5049632;28;20025;-78
2024/03/05 09:37:28;;;;;;;16.88;8.82;;;;;;;16.60;42.06;94095.91;5049784;28;20033;-78
2024/03/05 09:39:54;;;;;;;13.40;8.95;;;;;;;16.44;42.13;94096.56;5049279;28;20094;-77
2024/03/05 09:42:20;;;;;;;14.40;8.82;;;;;;;16.66;41.78;94093.91;5049382;28;20035;-77
2024/03/05 09:44:46;;;;;;;11.95;8.70;;;;;;;18.15;38.82;94086.97;5048973;28;20017;-77
2024/03/05 09:47:13;;;;;;;11.50;8.40;;;;;;;19.18;36.81;94082.19;5048063;28;20067;-76
2024/03/05 09:49:42;;;;;;;17.13;9.52;;;;;;;20.11;34.71;94077.78;5047733;28;20029;-77
2024/03/05 09:52:09;;;;;;;13.90;8.80;;;;;;;19.74;36.05;94093.03;5048386;28;20025;-78
2024/03/05 09:54:36;;;;;;;19.13;10.88;;;;;;;19.44;36.18;94092.94;5047573;28;20032;-79
2024/03/05 09:57:04;;;;;;;15.43;10.10;;;;;;;19.34;35.57;94086.16;5047401;28;20118;-78
2024/03/05 09:59:29;;;;;;;17.13;9.55;;;;;;;20.12;34.21;94087.66;5047939;28;20540;-79
2024/03/05 10:01:55;;;;;;;16.05;9.98;;;;;;;19.87;34.16;94095.97;5047312;28;20029;-78
2024/03/05 10:04:22;;;;;;;15.05;10.05;;;;;;;19.35;34.79;94087.66;5049224;28;20044;-79
2024/03/05 10:06:48;;;;;;;17.85;9.50;;;;;;;18.99;35.46;94086.81;5048712;28;20033;-79
2024/03/05 10:09:14;;;;;;;15.05;10.10;;;;;;;18.76;35.78;94098.03;5047770;28;20021;-77
2024/03/05 10:11:43;;;;;;;18.63;12.73;;;;;;;18.33;36.12;94086.44;5049401;28;20033;-77
2024/03/05 10:14:09;;;;;;;21.73;13.52;;;;;;;18.18;36.56;94094.28;5049001;28;20499;-78
2024/03/05 10:16:35;;;;;;;17.02;12.02;;;;;;;17.94;36.99;94097.59;5048968;28;20035;-78
2024/03/05 10:19:14;;;;;;;16.30;11.85;;;;;;;17.68;37.08;94089.47;5030525;28;20540;-79
2024/03/05 10:21:40;;;;;;;16.13;11.10;;;;;;;19.34;34.41;94088.94;5048732;28;20025;-78
2024/03/05 10:24:06;;;;;;;16.35;10.38;;;;;;;20.78;32.33;94082.00;5049115;28;20024;-79
2024/03/05 10:26:32;;;;;;;13.15;9.23;;;;;;;21.92;30.54;94095.53;5048822;28;20116;-77
2024/03/05 10:29:08;;;;;;;14.27;9.93;;;;;;;21.01;31.32;94086.06;5048518;28;20024;-79
2024/03/05 10:31:39;;;;;;;14.07;8.60;;;;;;;22.56;29.33;94089.19;5048853;28;20018;-77
2024/03/05 10:34:05;;;;;;;13.80;9.35;;;;;;;23.47;27.93;94086.19;5048596;28;20028;-78
2024/03/05 10:36:40;;;;;;;14.82;9.60;;;;;;;24.01;27.53;94085.50;5048434;28;20029;-78
2024/03/05 10:39:06;;;;;;;14.25;9.65;;;;;;;25.04;26.07;94085.97;5048532;28;20480;-78
2024/03/05 10:41:34;;;;;;;12.15;8.60;;;;;;;26.08;24.33;94084.78;5048224;28;20150;-78
2024/03/05 10:44:00;;;;;;;12.70;9.27;;;;;;;26.96;23.49;94084.47;5048156;28;20076;-78
2024/03/05 10:46:30;;;;;;;14.35;8.82;;;;;;;27.81;22.60;94090.66;5048063;28;20116;-78
2024/03/05 10:49:03;;;;;;;12.63;7.88;;;;;;;28.45;21.29;94095.59;5046743;28;20029;-78
2024/03/05 10:51:35;;;;;;;12.40;7.28;;;;;;;29.12;20.92;94094.88;5048214;28;20037;-79
2024/03/05 10:54:01;;;;;;;12.38;8.20;;;;;;;29.75;20.31;94093.66;5046413;28;20415;-78
2024/03/05 10:56:28;;;;;;;10.98;7.72;;;;;;;30.21;19.49;94091.00;5047983;28;20194;-79
2024/03/05 11:01:39;;;;;;;13.23;8.00;;;;;;;31.08;18.66;94093.47;5047857;28;20032;-77
2024/03/05 11:04:21;;;;;;;12.70;7.63;;;;;;;31.40;17.93;94089.53;5047799;28;20079;-78
2024/03/05 11:06:47;;;;;;;10.95;8.35;;;;;;;32.05;17.07;94100.00;5047276;28;20079;-78
2024/03/05 11:09:21;;;;;;;14.27;8.07;;;;;;;32.49;16.61;94088.25;5048115;28;20025;-77
2024/03/05 11:12:06;;;;;;;11.98;7.45;;;;;;;32.46;16.63;94098.00;5047449;28;20037;-77
2024/03/05 11:14:35;;;;;;;10.10;7.28;;;;;;;30.67;18.41;94093.16;5047770;28;20024;-78
2024/03/05 11:17:11;;;;;;;9.30;7.13;;;;;;;30.66;18.08;94091.69;5047149;28;20517;-76
2024/03/05 11:19:40;;;;;;;12.20;8.25;;;;;;;30.90;18.14;94101.34;5047461;28;20036;-78
2024/03/05 11:22:23;;;;;;;14.32;7.80;;;;;;;31.14;17.75;94088.25;5047746;28;20032;-79
2024/03/05 11:24:56;;;;;;;12.30;7.82;;;;;;;31.09;17.76;94097.81;5047283;28;20072;-79
2024/03/05 11:27:26;;;;;;;11.60;8.57;;;;;;;30.07;18.51;94093.44;5029416;28;20063;-76
2024/03/05 11:30:11;;;;;;;14.52;8.95;;;;;;;29.03;19.72;94090.63;5045536;28;20086;-77